createdAt,value
2019-05-20T00:02:23.093Z,61.16
2019-05-20T00:07:15.453Z,60.95
2019-05-20T00:12:19.640Z,60.85
2019-05-20T00:17:23.786Z,60.79
2019-05-20T00:22:27.896Z,60.83
2019-05-20T00:27:32.258Z,61.00
2019-05-20T00:32:41.320Z,61.44
2019-05-20T00:37:42.193Z,61.27
2019-05-20T00:42:46.450Z,60.85
2019-05-20T00:47:50.582Z,61.13
2019-05-20T00:52:54.842Z,61.30
2019-05-20T00:58:01.402Z,61.06
2019-05-20T01:03:05.748Z,60.82
2019-05-20T01:08:09.977Z,60.91
2019-05-20T01:13:14.306Z,60.70
2019-05-20T01:18:18.553Z,61.40
2019-05-20T01:23:22.819Z,61.51
2019-05-20T01:28:27.615Z,61.31
2019-05-20T01:33:31.726Z,61.19
2019-05-20T01:38:35.820Z,61.30
2019-05-20T01:43:39.893Z,61.30
2019-05-20T01:48:44.074Z,61.38
2019-05-20T01:53:48.104Z,61.38
2019-05-20T01:58:52.334Z,61.40
2019-05-20T02:03:56.677Z,61.40
2019-05-20T02:09:00.869Z,61.46
2019-05-20T02:14:08.905Z,61.38
2019-05-20T02:19:13.249Z,61.06
2019-05-20T02:24:17.513Z,61.64
2019-05-20T02:29:21.776Z,61.29
2019-05-20T02:34:25.943Z,61.68
2019-05-20T02:39:30.221Z,61.55
2019-05-20T02:44:34.767Z,61.78
2019-05-20T02:49:40.067Z,61.47
2019-05-20T02:54:44.187Z,61.44
2019-05-20T02:59:48.390Z,61.30
2019-05-20T03:04:52.428Z,62.26
2019-05-20T03:09:56.560Z,61.98
2019-05-20T03:15:00.948Z,61.85
2019-05-20T03:20:05.544Z,61.18
2019-05-20T03:25:09.888Z,61.44
2019-05-20T03:30:14.581Z,61.92
2019-05-20T03:35:18.831Z,62.34
2019-05-20T03:40:23.051Z,62.12
2019-05-20T03:45:27.358Z,62.36
2019-05-20T03:50:31.748Z,62.56
2019-05-20T03:55:36.028Z,62.74
2019-05-20T04:00:47.894Z,62.60
2019-05-20T04:05:52.360Z,62.60
2019-05-20T04:10:56.653Z,63.91
2019-05-20T04:16:01.032Z,63.42
2019-05-20T04:21:05.584Z,63.61
2019-05-20T04:26:09.986Z,64.33
2019-05-20T04:31:14.492Z,64.54
2019-05-20T04:36:18.842Z,64.46
2019-05-20T04:41:23.149Z,64.62
2019-05-20T04:46:27.493Z,64.62
2019-05-20T04:51:34.159Z,65.56
2019-05-20T04:56:38.319Z,64.70
2019-05-20T05:01:42.401Z,64.23
2019-05-20T05:06:46.556Z,64.23
2019-05-20T05:11:51.079Z,64.96
2019-05-20T05:16:55.388Z,64.79
2019-05-20T05:21:59.563Z,64.62
2019-05-20T05:27:03.773Z,64.62
2019-05-20T05:32:07.873Z,64.82
2019-05-20T05:37:12.017Z,65.55
2019-05-20T05:42:16.379Z,65.26
2019-05-20T05:47:20.556Z,65.66
2019-05-20T05:52:24.662Z,65.88
2019-05-20T05:57:28.725Z,66.49
2019-05-20T06:02:32.801Z,67.01
2019-05-20T06:07:36.902Z,66.92
2019-05-20T06:12:41.089Z,67.36
2019-05-20T06:17:45.283Z,67.74
2019-05-20T06:22:49.793Z,71.90
2019-05-20T06:27:53.909Z,71.90
2019-05-20T06:32:57.946Z,74.70
2019-05-20T06:38:03.700Z,75.19
2019-05-20T06:43:07.779Z,75.28
2019-05-20T06:48:11.898Z,75.26
2019-05-20T06:53:16.009Z,75.26
2019-05-20T06:58:20.022Z,76.21
2019-05-20T07:03:24.049Z,75.38
2019-05-20T07:08:28.086Z,75.04
2019-05-20T07:13:32.112Z,76.06
2019-05-20T07:18:36.237Z,75.26
2019-05-20T07:23:40.345Z,74.36
2019-05-20T07:28:44.558Z,74.37
2019-05-20T07:33:48.572Z,76.84
2019-05-20T07:38:52.613Z,76.12
2019-05-20T07:43:56.739Z,72.89
2019-05-20T07:49:01.618Z,74.85
2019-05-20T07:54:05.948Z,76.33
2019-05-20T07:59:13.019Z,76.33
2019-05-20T08:04:17.112Z,71.03
2019-05-20T08:09:21.195Z,71.19
2019-05-20T08:14:25.393Z,71.19
2019-05-20T08:19:29.543Z,70.05
2019-05-20T08:24:33.752Z,73.03
2019-05-20T08:29:37.858Z,70.64
2019-05-20T08:34:41.945Z,69.91
2019-05-20T08:39:46.242Z,69.91
2019-05-20T08:44:50.253Z,69.54
2019-05-20T08:49:54.609Z,69.03
2019-05-20T08:54:58.821Z,68.99
2019-05-20T09:00:03.393Z,69.84
2019-05-20T09:05:07.688Z,69.84
2019-05-20T09:10:11.962Z,68.25
2019-05-20T09:15:16.232Z,68.82
2019-05-20T09:20:20.561Z,68.82
2019-05-20T09:25:31.762Z,70.04
2019-05-20T09:30:35.881Z,69.80
2019-05-20T09:35:40.263Z,69.80
2019-05-20T09:40:47.189Z,71.19
2019-05-20T09:46:05.660Z,70.89
2019-05-20T09:50:57.477Z,71.06
2019-05-20T09:56:01.552Z,70.28
2019-05-20T10:01:05.732Z,69.30
2019-05-20T10:06:10.025Z,69.57
2019-05-20T10:11:14.188Z,68.62
2019-05-20T10:16:18.412Z,68.62
2019-05-20T10:21:22.604Z,68.14
2019-05-20T10:26:26.650Z,67.82
2019-05-20T10:31:30.827Z,67.48
2019-05-20T10:36:35.011Z,67.48
2019-05-20T10:41:39.146Z,67.59
2019-05-20T10:46:43.409Z,67.09
2019-05-20T10:51:47.500Z,67.30
2019-05-20T10:56:51.588Z,67.30
2019-05-20T11:01:55.629Z,67.19
2019-05-20T11:06:59.732Z,67.00
2019-05-20T11:12:03.890Z,67.13
2019-05-20T11:17:07.928Z,66.86
2019-05-20T11:22:11.949Z,66.44
2019-05-20T11:27:16.066Z,66.71
2019-05-20T11:32:20.098Z,66.58
2019-05-20T11:37:24.213Z,66.46
2019-05-20T11:42:28.415Z,66.97
2019-05-20T11:47:32.538Z,66.68
2019-05-20T11:52:36.632Z,66.77
2019-05-20T11:57:41.158Z,66.77
2019-05-20T12:02:45.267Z,66.77
2019-05-20T12:07:49.383Z,66.38
2019-05-20T12:12:53.503Z,66.43
2019-05-20T12:17:57.575Z,66.66
2019-05-20T12:23:01.628Z,66.63
2019-05-20T12:28:05.837Z,66.51
2019-05-20T12:33:18.454Z,66.30
2019-05-20T12:38:15.703Z,66.75
2019-05-20T12:43:19.779Z,66.37
2019-05-20T12:48:23.865Z,66.18
2019-05-20T12:53:27.906Z,66.52
2019-05-20T12:58:31.939Z,66.19
2019-05-20T13:03:35.967Z,65.95
2019-05-20T13:08:40.030Z,65.98
2019-05-20T13:13:44.144Z,66.09
2019-05-20T13:18:55.993Z,66.09
2019-05-20T13:23:54.414Z,66.26
2019-05-20T13:28:59.599Z,66.40
2019-05-20T13:34:04.067Z,67.00
2019-05-20T13:39:08.764Z,66.98
2019-05-20T13:44:12.912Z,66.78
2019-05-20T13:49:16.960Z,66.64
2019-05-20T13:54:21.178Z,66.64
2019-05-20T13:59:25.305Z,67.00
2019-05-20T14:04:29.368Z,66.90
2019-05-20T14:09:33.539Z,66.90
2019-05-20T14:14:37.777Z,67.26
2019-05-20T14:19:41.891Z,67.37
2019-05-20T14:24:46.066Z,66.74
2019-05-20T14:29:50.143Z,66.83
2019-05-20T14:34:54.208Z,66.39
2019-05-20T14:39:58.459Z,66.38
2019-05-20T14:45:02.756Z,66.92
2019-05-20T14:50:07.381Z,66.92
2019-05-20T14:55:11.670Z,66.61
2019-05-20T15:00:16.427Z,67.25
2019-05-20T15:05:20.546Z,66.94
2019-05-20T15:10:24.932Z,67.36
2019-05-20T15:15:29.056Z,66.89
2019-05-20T15:20:33.093Z,66.66
2019-05-20T15:25:37.352Z,66.66
2019-05-20T15:30:41.386Z,66.92
2019-05-20T15:35:45.443Z,66.62
2019-05-20T15:40:49.654Z,66.64
2019-05-20T15:45:53.774Z,67.08
2019-05-20T15:50:57.841Z,66.92
2019-05-20T15:56:01.992Z,66.63
2019-05-20T16:01:06.130Z,66.71
2019-05-20T16:12:40.428Z,66.81
2019-05-20T16:17:47.964Z,66.15
2019-05-20T16:22:50.644Z,66.77
2019-05-20T16:27:54.851Z,66.55
2019-05-20T16:32:59.059Z,66.55
2019-05-20T16:38:03.340Z,66.60
2019-05-20T16:43:07.565Z,66.29
2019-05-20T16:48:11.821Z,66.29
2019-05-20T16:53:16.098Z,66.30
2019-05-20T16:58:20.321Z,66.30
2019-05-20T17:03:24.550Z,66.14
2019-05-20T17:08:28.804Z,66.14
2019-05-20T17:13:33.054Z,66.26
2019-05-20T17:18:37.340Z,66.26
2019-05-20T17:23:41.489Z,66.62
2019-05-20T17:28:45.770Z,66.62
2019-05-20T17:33:49.990Z,66.64
2019-05-20T17:38:54.214Z,66.56
2019-05-20T17:43:58.379Z,66.84
2019-05-20T17:51:17.437Z,66.55
2019-05-20T18:01:15.203Z,67.02
2019-05-20T18:06:49.263Z,66.99
2019-05-20T18:12:05.991Z,67.10
2019-05-20T18:17:10.554Z,67.17
2019-05-20T18:22:15.329Z,67.05
2019-05-20T18:27:19.974Z,67.05
2019-05-20T18:32:24.639Z,67.27
2019-05-20T18:37:38.271Z,67.02
2019-05-20T18:43:11.233Z,67.06
2019-05-20T18:48:24.519Z,67.15
2019-05-20T18:53:39.445Z,67.26
2019-05-20T18:58:43.561Z,67.41
2019-05-20T19:03:47.832Z,66.89
2019-05-20T19:08:51.877Z,66.89
2019-05-20T19:13:56.641Z,66.84
2019-05-20T19:19:01.078Z,66.84
2019-05-20T19:24:05.431Z,67.23
2019-05-20T19:29:09.699Z,67.02
2019-05-20T19:34:14.269Z,67.11
2019-05-20T19:39:18.827Z,67.18
2019-05-20T19:44:31.199Z,67.18
2019-05-20T19:49:35.840Z,66.77
2019-05-20T19:54:40.261Z,67.20
2019-05-20T19:59:44.522Z,66.99
2019-05-20T20:04:49.033Z,67.00
2019-05-20T20:09:53.424Z,67.32
2019-05-20T20:14:57.575Z,67.32
2019-05-20T20:20:02.038Z,66.99
2019-05-20T20:25:07.199Z,66.99
2019-05-20T20:30:11.996Z,66.92
2019-05-20T20:35:16.503Z,67.14
2019-05-20T20:40:20.840Z,67.14
2019-05-20T20:45:25.275Z,67.05
2019-05-20T20:50:29.775Z,66.96
2019-05-20T20:55:34.300Z,66.94
2019-05-20T21:00:38.619Z,66.92
2019-05-20T21:05:43.009Z,67.01
2019-05-20T21:10:47.462Z,66.85
2019-05-20T21:15:58.664Z,66.63
2019-05-20T21:21:07.428Z,67.22
2019-05-20T21:26:11.559Z,66.39
2019-05-20T21:31:15.625Z,66.77
2019-05-20T21:36:19.659Z,66.57
2019-05-20T21:41:23.672Z,66.74
2019-05-20T21:46:27.722Z,66.94
2019-05-20T21:51:31.735Z,66.94
2019-05-20T21:56:35.780Z,67.10
2019-05-20T22:01:39.968Z,66.95
2019-05-20T22:06:44.139Z,67.28
2019-05-20T22:11:48.254Z,66.99
2019-05-20T22:16:52.482Z,67.33
2019-05-20T22:22:02.583Z,67.33
2019-05-20T22:27:06.822Z,67.29
2019-05-20T22:32:10.896Z,67.22
2019-05-20T22:37:15.068Z,67.39
2019-05-20T22:42:19.206Z,67.39
2019-05-20T22:47:23.252Z,67.41
2019-05-20T22:52:27.305Z,67.64
2019-05-20T22:57:31.434Z,67.38
2019-05-20T23:02:35.539Z,67.19
2019-05-20T23:07:39.669Z,67.19
2019-05-20T23:12:43.722Z,67.34
2019-05-20T23:17:47.930Z,67.72
2019-05-20T23:22:52.096Z,67.72
2019-05-20T23:27:56.260Z,67.71
2019-05-20T23:33:00.393Z,67.95
2019-05-20T23:38:04.558Z,67.80
2019-05-20T23:43:08.684Z,67.96
2019-05-20T23:48:12.868Z,67.98
2019-05-20T23:53:17.072Z,68.07
2019-05-20T23:58:21.289Z,67.89
